sensor_id;sensor_type;location;lat;lon;timestamp;P1;durP1;ratioP1;P2;durP2;ratioP2
78555;SDS011;67851;51.354;7.744;2023-07-22T00:00:44;46.85;;;20.10;;
78555;SDS011;67851;51.354;7.744;2023-07-22T00:03:10;45.35;;;19.52;;
78555;SDS011;67851;51.354;7.744;2023-07-22T00:05:35;45.45;;;20.50;;
78555;SDS011;67851;51.354;7.744;2023-07-22T00:08:01;48.70;;;20.65;;
78555;SDS011;67851;51.354;7.744;2023-07-22T00:10:26;53.92;;;20.70;;
78555;SDS011;67851;51.354;7.744;2023-07-22T00:12:52;53.63;;;21.92;;
78555;SDS011;67851;51.354;7.744;2023-07-22T00:15:18;49.67;;;20.73;;
78555;SDS011;67851;51.354;7.744;2023-07-22T00:17:45;52.78;;;20.98;;
78555;SDS011;67851;51.354;7.744;2023-07-22T00:20:12;59.05;;;21.90;;
78555;SDS011;67851;51.354;7.744;2023-07-22T00:22:39;58.35;;;23.30;;
78555;SDS011;67851;51.354;7.744;2023-07-22T00:25:06;50.65;;;21.50;;
78555;SDS011;67851;51.354;7.744;2023-07-22T00:27:33;56.45;;;22.30;;
78555;SDS011;67851;51.354;7.744;2023-07-22T00:29:58;53.83;;;21.70;;
78555;SDS011;67851;51.354;7.744;2023-07-22T00:32:24;55.88;;;22.10;;
78555;SDS011;67851;51.354;7.744;2023-07-22T00:34:49;50.47;;;21.92;;
78555;SDS011;67851;51.354;7.744;2023-07-22T00:37:17;58.40;;;22.50;;
78555;SDS011;67851;51.354;7.744;2023-07-22T00:39:43;64.47;;;22.33;;
78555;SDS011;67851;51.354;7.744;2023-07-22T00:42:08;56.63;;;22.88;;
78555;SDS011;67851;51.354;7.744;2023-07-22T00:44:35;55.53;;;21.52;;
78555;SDS011;67851;51.354;7.744;2023-07-22T00:47:02;63.67;;;23.05;;
78555;SDS011;67851;51.354;7.744;2023-07-22T00:49:27;71.68;;;24.10;;
78555;SDS011;67851;51.354;7.744;2023-07-22T00:51:54;64.10;;;24.55;;
78555;SDS011;67851;51.354;7.744;2023-07-22T00:54:21;60.58;;;23.88;;
78555;SDS011;67851;51.354;7.744;2023-07-22T00:56:46;64.82;;;23.70;;
78555;SDS011;67851;51.354;7.744;2023-07-22T00:59:13;56.53;;;21.30;;
78555;SDS011;67851;51.354;7.744;2023-07-22T01:01:40;60.63;;;24.27;;
78555;SDS011;67851;51.354;7.744;2023-07-22T01:04:06;60.28;;;22.75;;
78555;SDS011;67851;51.354;7.744;2023-07-22T01:06:32;66.10;;;24.45;;
78555;SDS011;67851;51.354;7.744;2023-07-22T01:09:00;64.97;;;24.98;;
78555;SDS011;67851;51.354;7.744;2023-07-22T01:11:25;68.32;;;26.05;;
78555;SDS011;67851;51.354;7.744;2023-07-22T01:13:51;67.20;;;26.77;;
78555;SDS011;67851;51.354;7.744;2023-07-22T01:16:24;75.28;;;24.77;;
78555;SDS011;67851;51.354;7.744;2023-07-22T01:18:53;66.82;;;24.98;;
78555;SDS011;67851;51.354;7.744;2023-07-22T01:21:22;65.47;;;24.58;;
78555;SDS011;67851;51.354;7.744;2023-07-22T01:23:49;73.78;;;25.20;;
78555;SDS011;67851;51.354;7.744;2023-07-22T01:26:14;62.13;;;26.15;;
78555;SDS011;67851;51.354;7.744;2023-07-22T01:28:40;62.15;;;25.05;;
78555;SDS011;67851;51.354;7.744;2023-07-22T01:31:06;62.15;;;24.75;;
78555;SDS011;67851;51.354;7.744;2023-07-22T01:33:33;72.57;;;25.95;;
78555;SDS011;67851;51.354;7.744;2023-07-22T01:35:59;64.22;;;25.23;;
78555;SDS011;67851;51.354;7.744;2023-07-22T01:38:25;66.53;;;25.45;;
78555;SDS011;67851;51.354;7.744;2023-07-22T01:40:51;60.42;;;24.40;;
78555;SDS011;67851;51.354;7.744;2023-07-22T01:43:17;65.95;;;25.67;;
78555;SDS011;67851;51.354;7.744;2023-07-22T01:45:43;61.58;;;23.52;;
78555;SDS011;67851;51.354;7.744;2023-07-22T01:48:08;62.05;;;24.92;;
78555;SDS011;67851;51.354;7.744;2023-07-22T01:50:34;58.22;;;25.60;;
78555;SDS011;67851;51.354;7.744;2023-07-22T01:53:00;66.38;;;25.60;;
78555;SDS011;67851;51.354;7.744;2023-07-22T01:55:25;52.22;;;22.90;;
78555;SDS011;67851;51.354;7.744;2023-07-22T01:57:51;54.80;;;23.77;;
78555;SDS011;67851;51.354;7.744;2023-07-22T02:00:17;54.30;;;23.52;;
78555;SDS011;67851;51.354;7.744;2023-07-22T02:02:43;52.92;;;24.35;;
78555;SDS011;67851;51.354;7.744;2023-07-22T02:05:09;50.40;;;24.35;;
78555;SDS011;67851;51.354;7.744;2023-07-22T02:07:35;47.95;;;21.77;;
78555;SDS011;67851;51.354;7.744;2023-07-22T02:10:01;48.20;;;21.88;;
78555;SDS011;67851;51.354;7.744;2023-07-22T02:12:28;48.55;;;22.85;;
78555;SDS011;67851;51.354;7.744;2023-07-22T02:14:54;46.00;;;21.08;;
78555;SDS011;67851;51.354;7.744;2023-07-22T02:17:19;38.05;;;19.60;;
78555;SDS011;67851;51.354;7.744;2023-07-22T02:19:45;46.03;;;20.20;;
78555;SDS011;67851;51.354;7.744;2023-07-22T02:22:11;39.97;;;19.77;;
78555;SDS011;67851;51.354;7.744;2023-07-22T02:24:37;40.92;;;18.67;;
78555;SDS011;67851;51.354;7.744;2023-07-22T02:27:04;40.13;;;19.23;;
78555;SDS011;67851;51.354;7.744;2023-07-22T02:29:29;40.88;;;18.65;;
78555;SDS011;67851;51.354;7.744;2023-07-22T02:31:58;45.30;;;20.98;;
78555;SDS011;67851;51.354;7.744;2023-07-22T02:34:23;44.08;;;18.63;;
78555;SDS011;67851;51.354;7.744;2023-07-22T02:36:49;39.88;;;19.23;;
78555;SDS011;67851;51.354;7.744;2023-07-22T02:39:14;55.05;;;21.65;;
78555;SDS011;67851;51.354;7.744;2023-07-22T02:41:40;45.80;;;20.13;;
78555;SDS011;67851;51.354;7.744;2023-07-22T02:44:06;51.00;;;21.52;;
78555;SDS011;67851;51.354;7.744;2023-07-22T02:46:33;62.30;;;23.83;;
78555;SDS011;67851;51.354;7.744;2023-07-22T02:48:58;63.47;;;25.55;;
78555;SDS011;67851;51.354;7.744;2023-07-22T02:51:24;55.53;;;22.92;;
78555;SDS011;67851;51.354;7.744;2023-07-22T02:53:49;50.95;;;23.48;;
78555;SDS011;67851;51.354;7.744;2023-07-22T02:56:15;56.85;;;23.90;;
78555;SDS011;67851;51.354;7.744;2023-07-22T02:58:41;58.47;;;23.60;;
78555;SDS011;67851;51.354;7.744;2023-07-22T03:01:07;61.70;;;23.15;;
78555;SDS011;67851;51.354;7.744;2023-07-22T03:03:34;55.42;;;23.38;;
78555;SDS011;67851;51.354;7.744;2023-07-22T03:06:00;58.13;;;24.25;;
78555;SDS011;67851;51.354;7.744;2023-07-22T03:08:27;55.47;;;23.55;;
78555;SDS011;67851;51.354;7.744;2023-07-22T03:10:52;58.10;;;22.60;;
78555;SDS011;67851;51.354;7.744;2023-07-22T03:13:18;51.78;;;22.75;;
78555;SDS011;67851;51.354;7.744;2023-07-22T03:15:44;53.03;;;21.65;;
78555;SDS011;67851;51.354;7.744;2023-07-22T03:18:09;45.65;;;21.48;;
78555;SDS011;67851;51.354;7.744;2023-07-22T03:20:36;41.58;;;20.75;;
78555;SDS011;67851;51.354;7.744;2023-07-22T03:23:03;39.95;;;19.65;;
78555;SDS011;67851;51.354;7.744;2023-07-22T03:25:29;44.67;;;19.85;;
78555;SDS011;67851;51.354;7.744;2023-07-22T03:27:55;40.90;;;20.33;;
78555;SDS011;67851;51.354;7.744;2023-07-22T03:30:22;40.03;;;20.95;;
78555;SDS011;67851;51.354;7.744;2023-07-22T03:32:48;38.17;;;18.25;;
78555;SDS011;67851;51.354;7.744;2023-07-22T03:35:16;42.53;;;18.80;;
78555;SDS011;67851;51.354;7.744;2023-07-22T03:37:42;46.38;;;20.45;;
78555;SDS011;67851;51.354;7.744;2023-07-22T03:40:09;41.22;;;18.73;;
78555;SDS011;67851;51.354;7.744;2023-07-22T03:42:52;40.83;;;18.38;;
78555;SDS011;67851;51.354;7.744;2023-07-22T03:45:19;44.20;;;19.15;;
78555;SDS011;67851;51.354;7.744;2023-07-22T03:47:46;45.10;;;19.60;;
78555;SDS011;67851;51.354;7.744;2023-07-22T03:50:15;41.50;;;18.90;;
78555;SDS011;67851;51.354;7.744;2023-07-22T03:52:42;40.47;;;18.55;;
78555;SDS011;67851;51.354;7.744;2023-07-22T03:55:08;42.38;;;19.23;;
78555;SDS011;67851;51.354;7.744;2023-07-22T03:57:34;46.60;;;19.13;;
78555;SDS011;67851;51.354;7.744;2023-07-22T04:00:01;40.45;;;18.90;;
78555;SDS011;67851;51.354;7.744;2023-07-22T04:02:37;41.20;;;19.02;;
78555;SDS011;67851;51.354;7.744;2023-07-22T04:05:03;44.20;;;19.35;;
78555;SDS011;67851;51.354;7.744;2023-07-22T04:07:29;42.95;;;19.33;;
78555;SDS011;67851;51.354;7.744;2023-07-22T04:09:55;49.03;;;20.48;;
78555;SDS011;67851;51.354;7.744;2023-07-22T04:12:20;43.78;;;18.65;;
78555;SDS011;67851;51.354;7.744;2023-07-22T04:14:46;39.78;;;18.58;;
78555;SDS011;67851;51.354;7.744;2023-07-22T04:17:12;42.60;;;19.77;;
78555;SDS011;67851;51.354;7.744;2023-07-22T04:19:37;34.80;;;17.48;;
78555;SDS011;67851;51.354;7.744;2023-07-22T04:22:03;39.75;;;17.02;;
78555;SDS011;67851;51.354;7.744;2023-07-22T04:24:30;37.95;;;17.35;;
78555;SDS011;67851;51.354;7.744;2023-07-22T04:26:57;34.80;;;16.98;;
78555;SDS011;67851;51.354;7.744;2023-07-22T04:29:25;34.30;;;17.17;;
78555;SDS011;67851;51.354;7.744;2023-07-22T04:31:51;33.05;;;17.05;;
78555;SDS011;67851;51.354;7.744;2023-07-22T04:34:18;38.08;;;17.58;;
78555;SDS011;67851;51.354;7.744;2023-07-22T04:36:44;34.38;;;17.33;;
78555;SDS011;67851;51.354;7.744;2023-07-22T04:39:10;32.55;;;16.15;;
78555;SDS011;67851;51.354;7.744;2023-07-22T04:41:35;28.45;;;15.55;;
78555;SDS011;67851;51.354;7.744;2023-07-22T04:44:04;26.30;;;15.27;;
78555;SDS011;67851;51.354;7.744;2023-07-22T04:46:29;27.42;;;15.13;;
78555;SDS011;67851;51.354;7.744;2023-07-22T04:48:55;27.02;;;15.82;;
78555;SDS011;67851;51.354;7.744;2023-07-22T04:51:23;29.90;;;15.20;;
78555;SDS011;67851;51.354;7.744;2023-07-22T04:53:48;23.40;;;14.32;;
78555;SDS011;67851;51.354;7.744;2023-07-22T04:56:14;22.52;;;14.55;;
78555;SDS011;67851;51.354;7.744;2023-07-22T04:58:39;26.05;;;13.73;;
78555;SDS011;67851;51.354;7.744;2023-07-22T05:01:05;25.65;;;14.65;;
78555;SDS011;67851;51.354;7.744;2023-07-22T05:03:31;20.30;;;12.95;;
78555;SDS011;67851;51.354;7.744;2023-07-22T05:05:57;26.80;;;14.57;;
78555;SDS011;67851;51.354;7.744;2023-07-22T05:08:23;24.58;;;13.43;;
78555;SDS011;67851;51.354;7.744;2023-07-22T05:10:48;23.08;;;12.88;;
78555;SDS011;67851;51.354;7.744;2023-07-22T05:13:14;27.10;;;12.63;;
78555;SDS011;67851;51.354;7.744;2023-07-22T05:15:39;19.77;;;11.63;;
78555;SDS011;67851;51.354;7.744;2023-07-22T05:18:05;17.45;;;11.38;;
78555;SDS011;67851;51.354;7.744;2023-07-22T05:20:30;34.60;;;12.18;;
78555;SDS011;67851;51.354;7.744;2023-07-22T05:22:57;19.40;;;11.57;;
78555;SDS011;67851;51.354;7.744;2023-07-22T05:25:23;16.27;;;10.95;;
78555;SDS011;67851;51.354;7.744;2023-07-22T05:27:49;20.33;;;11.15;;
78555;SDS011;67851;51.354;7.744;2023-07-22T05:30:14;17.05;;;10.68;;
78555;SDS011;67851;51.354;7.744;2023-07-22T05:32:40;15.30;;;10.43;;
78555;SDS011;67851;51.354;7.744;2023-07-22T05:35:06;19.25;;;10.48;;
78555;SDS011;67851;51.354;7.744;2023-07-22T05:37:31;14.98;;;10.25;;
78555;SDS011;67851;51.354;7.744;2023-07-22T05:39:59;15.93;;;10.00;;
78555;SDS011;67851;51.354;7.744;2023-07-22T05:42:25;15.13;;;9.18;;
78555;SDS011;67851;51.354;7.744;2023-07-22T05:44:53;16.35;;;10.55;;
78555;SDS011;67851;51.354;7.744;2023-07-22T05:47:19;15.15;;;9.48;;
78555;SDS011;67851;51.354;7.744;2023-07-22T05:49:45;14.90;;;9.40;;
78555;SDS011;67851;51.354;7.744;2023-07-22T05:52:10;13.32;;;9.32;;
78555;SDS011;67851;51.354;7.744;2023-07-22T05:54:36;17.75;;;9.85;;
78555;SDS011;67851;51.354;7.744;2023-07-22T05:57:02;16.85;;;9.27;;
78555;SDS011;67851;51.354;7.744;2023-07-22T05:59:30;16.70;;;9.05;;
78555;SDS011;67851;51.354;7.744;2023-07-22T06:01:56;14.10;;;9.35;;
78555;SDS011;67851;51.354;7.744;2023-07-22T06:04:22;19.33;;;9.45;;
78555;SDS011;67851;51.354;7.744;2023-07-22T06:06:48;13.95;;;9.00;;
78555;SDS011;67851;51.354;7.744;2023-07-22T06:09:14;13.93;;;8.25;;
78555;SDS011;67851;51.354;7.744;2023-07-22T06:11:39;14.27;;;8.98;;
78555;SDS011;67851;51.354;7.744;2023-07-22T06:14:05;10.75;;;7.78;;
78555;SDS011;67851;51.354;7.744;2023-07-22T06:16:32;20.55;;;8.20;;
78555;SDS011;67851;51.354;7.744;2023-07-22T06:18:57;13.05;;;8.23;;
78555;SDS011;67851;51.354;7.744;2023-07-22T06:21:23;21.40;;;7.68;;
78555;SDS011;67851;51.354;7.744;2023-07-22T06:23:48;10.55;;;7.63;;
78555;SDS011;67851;51.354;7.744;2023-07-22T06:26:14;11.55;;;6.70;;
78555;SDS011;67851;51.354;7.744;2023-07-22T06:28:39;10.40;;;7.25;;
78555;SDS011;67851;51.354;7.744;2023-07-22T06:31:05;12.43;;;7.78;;
78555;SDS011;67851;51.354;7.744;2023-07-22T06:33:30;11.82;;;7.20;;
78555;SDS011;67851;51.354;7.744;2023-07-22T06:35:59;16.83;;;7.10;;
78555;SDS011;67851;51.354;7.744;2023-07-22T06:38:24;10.25;;;6.97;;
78555;SDS011;67851;51.354;7.744;2023-07-22T06:40:52;10.27;;;7.22;;
78555;SDS011;67851;51.354;7.744;2023-07-22T06:43:19;11.02;;;6.65;;
78555;SDS011;67851;51.354;7.744;2023-07-22T06:45:45;11.05;;;7.68;;
78555;SDS011;67851;51.354;7.744;2023-07-22T06:48:10;9.73;;;6.90;;
78555;SDS011;67851;51.354;7.744;2023-07-22T06:50:36;12.57;;;7.30;;
78555;SDS011;67851;51.354;7.744;2023-07-22T06:53:03;12.25;;;7.03;;
78555;SDS011;67851;51.354;7.744;2023-07-22T06:55:29;10.15;;;6.53;;
78555;SDS011;67851;51.354;7.744;2023-07-22T06:57:58;11.95;;;7.40;;
78555;SDS011;67851;51.354;7.744;2023-07-22T07:00:25;10.25;;;6.43;;
78555;SDS011;67851;51.354;7.744;2023-07-22T07:02:50;9.05;;;5.82;;
78555;SDS011;67851;51.354;7.744;2023-07-22T07:05:17;10.40;;;7.38;;
78555;SDS011;67851;51.354;7.744;2023-07-22T07:07:42;11.90;;;6.60;;
78555;SDS011;67851;51.354;7.744;2023-07-22T07:10:10;9.57;;;6.80;;
78555;SDS011;67851;51.354;7.744;2023-07-22T07:12:39;10.20;;;6.50;;
78555;SDS011;67851;51.354;7.744;2023-07-22T07:15:04;12.38;;;6.75;;
78555;SDS011;67851;51.354;7.744;2023-07-22T07:17:30;12.20;;;6.32;;
78555;SDS011;67851;51.354;7.744;2023-07-22T07:19:56;12.18;;;7.00;;
78555;SDS011;67851;51.354;7.744;2023-07-22T07:22:22;15.02;;;6.75;;
78555;SDS011;67851;51.354;7.744;2023-07-22T07:24:48;12.68;;;6.28;;
78555;SDS011;67851;51.354;7.744;2023-07-22T07:27:15;7.88;;;6.68;;
78555;SDS011;67851;51.354;7.744;2023-07-22T07:29:40;9.35;;;6.72;;
78555;SDS011;67851;51.354;7.744;2023-07-22T07:32:07;9.57;;;6.85;;
78555;SDS011;67851;51.354;7.744;2023-07-22T07:34:32;9.80;;;6.50;;
78555;SDS011;67851;51.354;7.744;2023-07-22T07:36:58;10.82;;;6.13;;
78555;SDS011;67851;51.354;7.744;2023-07-22T07:39:23;11.60;;;6.13;;
78555;SDS011;67851;51.354;7.744;2023-07-22T07:41:49;10.57;;;6.53;;
78555;SDS011;67851;51.354;7.744;2023-07-22T07:44:14;10.27;;;6.15;;
78555;SDS011;67851;51.354;7.744;2023-07-22T07:46:40;12.38;;;6.63;;
78555;SDS011;67851;51.354;7.744;2023-07-22T07:49:05;10.15;;;6.30;;
78555;SDS011;67851;51.354;7.744;2023-07-22T07:51:31;8.18;;;6.68;;
78555;SDS011;67851;51.354;7.744;2023-07-22T07:53:58;9.80;;;7.38;;
78555;SDS011;67851;51.354;7.744;2023-07-22T07:56:24;9.98;;;7.57;;
78555;SDS011;67851;51.354;7.744;2023-07-22T07:58:51;11.85;;;7.28;;
78555;SDS011;67851;51.354;7.744;2023-07-22T08:01:18;11.30;;;6.78;;
78555;SDS011;67851;51.354;7.744;2023-07-22T08:03:43;9.02;;;6.43;;
78555;SDS011;67851;51.354;7.744;2023-07-22T08:06:10;8.77;;;5.60;;
78555;SDS011;67851;51.354;7.744;2023-07-22T08:08:36;10.23;;;7.45;;
78555;SDS011;67851;51.354;7.744;2023-07-22T08:11:03;11.35;;;6.50;;
78555;SDS011;67851;51.354;7.744;2023-07-22T08:13:33;11.63;;;7.40;;
78555;SDS011;67851;51.354;7.744;2023-07-22T08:16:02;11.77;;;7.28;;
78555;SDS011;67851;51.354;7.744;2023-07-22T08:18:31;13.27;;;7.10;;
78555;SDS011;67851;51.354;7.744;2023-07-22T08:20:58;9.27;;;6.97;;
78555;SDS011;67851;51.354;7.744;2023-07-22T08:23:24;12.07;;;8.40;;
78555;SDS011;67851;51.354;7.744;2023-07-22T08:25:49;9.38;;;6.82;;
78555;SDS011;67851;51.354;7.744;2023-07-22T08:28:15;9.93;;;7.63;;
78555;SDS011;67851;51.354;7.744;2023-07-22T08:30:41;10.05;;;7.50;;
78555;SDS011;67851;51.354;7.744;2023-07-22T08:33:07;8.98;;;6.63;;
78555;SDS011;67851;51.354;7.744;2023-07-22T08:35:38;11.10;;;6.55;;
78555;SDS011;67851;51.354;7.744;2023-07-22T08:38:04;30.50;;;9.18;;
78555;SDS011;67851;51.354;7.744;2023-07-22T08:40:36;9.77;;;6.40;;
78555;SDS011;67851;51.354;7.744;2023-07-22T08:43:03;10.15;;;6.65;;
78555;SDS011;67851;51.354;7.744;2023-07-22T08:45:34;25.55;;;7.90;;
78555;SDS011;67851;51.354;7.744;2023-07-22T08:48:04;8.57;;;6.95;;
78555;SDS011;67851;51.354;7.744;2023-07-22T08:53:08;9.73;;;5.90;;
78555;SDS011;67851;51.354;7.744;2023-07-22T08:55:34;9.15;;;6.22;;
78555;SDS011;67851;51.354;7.744;2023-07-22T08:57:59;8.82;;;6.70;;
78555;SDS011;67851;51.354;7.744;2023-07-22T09:00:25;7.13;;;5.15;;
78555;SDS011;67851;51.354;7.744;2023-07-22T09:02:51;10.55;;;6.65;;
78555;SDS011;67851;51.354;7.744;2023-07-22T09:05:18;10.60;;;7.05;;
78555;SDS011;67851;51.354;7.744;2023-07-22T09:07:44;9.00;;;6.57;;
78555;SDS011;67851;51.354;7.744;2023-07-22T09:10:13;7.55;;;5.90;;
78555;SDS011;67851;51.354;7.744;2023-07-22T09:12:40;9.00;;;5.90;;
78555;SDS011;67851;51.354;7.744;2023-07-22T09:15:11;7.75;;;5.82;;
78555;SDS011;67851;51.354;7.744;2023-07-22T09:17:38;8.93;;;5.53;;
78555;SDS011;67851;51.354;7.744;2023-07-22T09:20:04;6.95;;;4.75;;
78555;SDS011;67851;51.354;7.744;2023-07-22T09:22:31;9.43;;;5.55;;
78555;SDS011;67851;51.354;7.744;2023-07-22T09:27:44;8.75;;;5.90;;
78555;SDS011;67851;51.354;7.744;2023-07-22T09:30:21;6.35;;;5.57;;
78555;SDS011;67851;51.354;7.744;2023-07-22T09:32:59;7.75;;;5.47;;
78555;SDS011;67851;51.354;7.744;2023-07-22T09:35:27;10.35;;;5.43;;
78555;SDS011;67851;51.354;7.744;2023-07-22T09:38:10;7.15;;;5.53;;
78555;SDS011;67851;51.354;7.744;2023-07-22T09:40:35;8.27;;;6.05;;
78555;SDS011;67851;51.354;7.744;2023-07-22T09:43:01;5.82;;;4.97;;
78555;SDS011;67851;51.354;7.744;2023-07-22T09:45:29;7.35;;;5.18;;
78555;SDS011;67851;51.354;7.744;2023-07-22T09:47:56;6.60;;;4.68;;
78555;SDS011;67851;51.354;7.744;2023-07-22T09:50:23;7.15;;;4.47;;
78555;SDS011;67851;51.354;7.744;2023-07-22T09:52:59;7.47;;;4.82;;
78555;SDS011;67851;51.354;7.744;2023-07-22T09:55:28;8.45;;;5.32;;
78555;SDS011;67851;51.354;7.744;2023-07-22T09:58:02;6.40;;;4.90;;
78555;SDS011;67851;51.354;7.744;2023-07-22T10:00:47;8.95;;;4.93;;
78555;SDS011;67851;51.354;7.744;2023-07-22T10:03:17;5.88;;;4.22;;
78555;SDS011;67851;51.354;7.744;2023-07-22T10:05:45;7.32;;;4.75;;
78555;SDS011;67851;51.354;7.744;2023-07-22T10:08:11;7.28;;;4.97;;
78555;SDS011;67851;51.354;7.744;2023-07-22T10:10:37;6.93;;;5.30;;
78555;SDS011;67851;51.354;7.744;2023-07-22T10:13:04;6.82;;;5.05;;
78555;SDS011;67851;51.354;7.744;2023-07-22T10:15:30;8.20;;;4.55;;
78555;SDS011;67851;51.354;7.744;2023-07-22T10:17:58;8.93;;;5.18;;
78555;SDS011;67851;51.354;7.744;2023-07-22T10:20:25;9.50;;;5.35;;
78555;SDS011;67851;51.354;7.744;2023-07-22T10:22:50;5.75;;;5.07;;
78555;SDS011;67851;51.354;7.744;2023-07-22T10:25:19;7.65;;;5.68;;
78555;SDS011;67851;51.354;7.744;2023-07-22T10:27:46;14.32;;;6.13;;
78555;SDS011;67851;51.354;7.744;2023-07-22T10:30:13;8.25;;;5.63;;
78555;SDS011;67851;51.354;7.744;2023-07-22T10:32:43;16.38;;;6.40;;
78555;SDS011;67851;51.354;7.744;2023-07-22T10:35:11;9.50;;;5.65;;
78555;SDS011;67851;51.354;7.744;2023-07-22T10:37:44;6.97;;;5.95;;
78555;SDS011;67851;51.354;7.744;2023-07-22T10:45:26;6.90;;;4.93;;
78555;SDS011;67851;51.354;7.744;2023-07-22T10:48:14;4.90;;;4.18;;
78555;SDS011;67851;51.354;7.744;2023-07-22T10:50:40;5.68;;;4.55;;
78555;SDS011;67851;51.354;7.744;2023-07-22T10:53:06;7.05;;;5.00;;
78555;SDS011;67851;51.354;7.744;2023-07-22T11:04:07;5.80;;;4.30;;
78555;SDS011;67851;51.354;7.744;2023-07-22T11:06:36;10.23;;;5.20;;
78555;SDS011;67851;51.354;7.744;2023-07-22T11:14:38;4.80;;;3.47;;
78555;SDS011;67851;51.354;7.744;2023-07-22T11:17:11;5.97;;;3.88;;
78555;SDS011;67851;51.354;7.744;2023-07-22T11:19:37;4.65;;;3.80;;
78555;SDS011;67851;51.354;7.744;2023-07-22T11:22:03;6.65;;;4.00;;
78555;SDS011;67851;51.354;7.744;2023-07-22T11:24:29;9.13;;;4.30;;
78555;SDS011;67851;51.354;7.744;2023-07-22T11:26:55;5.53;;;4.07;;
78555;SDS011;67851;51.354;7.744;2023-07-22T11:29:21;6.22;;;4.22;;
78555;SDS011;67851;51.354;7.744;2023-07-22T11:31:49;4.70;;;3.40;;
78555;SDS011;67851;51.354;7.744;2023-07-22T11:34:16;5.80;;;3.80;;
78555;SDS011;67851;51.354;7.744;2023-07-22T11:36:43;4.82;;;4.32;;
78555;SDS011;67851;51.354;7.744;2023-07-22T11:39:09;9.70;;;4.50;;
78555;SDS011;67851;51.354;7.744;2023-07-22T11:41:38;6.45;;;4.47;;
78555;SDS011;67851;51.354;7.744;2023-07-22T11:44:07;5.07;;;4.32;;
78555;SDS011;67851;51.354;7.744;2023-07-22T11:46:35;4.78;;;3.60;;
78555;SDS011;67851;51.354;7.744;2023-07-22T11:49:01;4.70;;;3.50;;
78555;SDS011;67851;51.354;7.744;2023-07-22T11:51:29;4.45;;;3.38;;
78555;SDS011;67851;51.354;7.744;2023-07-22T11:53:54;4.97;;;3.50;;
78555;SDS011;67851;51.354;7.744;2023-07-22T11:56:27;4.50;;;3.63;;
78555;SDS011;67851;51.354;7.744;2023-07-22T11:58:56;7.28;;;3.72;;
78555;SDS011;67851;51.354;7.744;2023-07-22T12:01:23;4.45;;;3.20;;
78555;SDS011;67851;51.354;7.744;2023-07-22T12:03:49;8.60;;;3.85;;
78555;SDS011;67851;51.354;7.744;2023-07-22T12:06:15;5.43;;;3.65;;
78555;SDS011;67851;51.354;7.744;2023-07-22T12:08:45;4.72;;;3.63;;
78555;SDS011;67851;51.354;7.744;2023-07-22T12:11:21;6.13;;;3.67;;
78555;SDS011;67851;51.354;7.744;2023-07-22T12:16:56;4.47;;;3.25;;
78555;SDS011;67851;51.354;7.744;2023-07-22T12:19:23;4.63;;;3.03;;
78555;SDS011;67851;51.354;7.744;2023-07-22T12:21:49;4.38;;;3.17;;
78555;SDS011;67851;51.354;7.744;2023-07-22T12:24:15;4.47;;;3.38;;
78555;SDS011;67851;51.354;7.744;2023-07-22T12:26:42;4.95;;;3.60;;
78555;SDS011;67851;51.354;7.744;2023-07-22T12:29:08;4.50;;;3.45;;
78555;SDS011;67851;51.354;7.744;2023-07-22T12:31:35;4.82;;;3.75;;
78555;SDS011;67851;51.354;7.744;2023-07-22T12:34:01;4.63;;;3.60;;
78555;SDS011;67851;51.354;7.744;2023-07-22T12:36:26;6.10;;;4.28;;
78555;SDS011;67851;51.354;7.744;2023-07-22T12:38:52;4.50;;;3.30;;
78555;SDS011;67851;51.354;7.744;2023-07-22T12:41:18;4.10;;;3.15;;
78555;SDS011;67851;51.354;7.744;2023-07-22T12:43:43;4.55;;;3.10;;
78555;SDS011;67851;51.354;7.744;2023-07-22T12:46:09;4.93;;;3.42;;
78555;SDS011;67851;51.354;7.744;2023-07-22T12:48:34;7.25;;;3.35;;
78555;SDS011;67851;51.354;7.744;2023-07-22T12:51:00;4.97;;;3.35;;
78555;SDS011;67851;51.354;7.744;2023-07-22T12:53:26;5.07;;;3.03;;
78555;SDS011;67851;51.354;7.744;2023-07-22T12:55:52;11.93;;;3.10;;
78555;SDS011;67851;51.354;7.744;2023-07-22T12:58:17;4.28;;;3.00;;
78555;SDS011;67851;51.354;7.744;2023-07-22T13:00:43;6.22;;;2.90;;
78555;SDS011;67851;51.354;7.744;2023-07-22T13:03:08;2.97;;;2.30;;
78555;SDS011;67851;51.354;7.744;2023-07-22T13:05:34;3.47;;;2.75;;
78555;SDS011;67851;51.354;7.744;2023-07-22T13:07:59;5.55;;;2.60;;
78555;SDS011;67851;51.354;7.744;2023-07-22T13:10:28;3.58;;;2.63;;
78555;SDS011;67851;51.354;7.744;2023-07-22T13:12:55;5.60;;;2.60;;
78555;SDS011;67851;51.354;7.744;2023-07-22T13:15:21;3.80;;;2.72;;
78555;SDS011;67851;51.354;7.744;2023-07-22T13:17:46;4.15;;;2.75;;
78555;SDS011;67851;51.354;7.744;2023-07-22T13:20:12;6.07;;;2.30;;
78555;SDS011;67851;51.354;7.744;2023-07-22T13:22:38;3.38;;;2.58;;
78555;SDS011;67851;51.354;7.744;2023-07-22T13:25:04;3.30;;;2.58;;
78555;SDS011;67851;51.354;7.744;2023-07-22T13:27:30;2.95;;;2.60;;
78555;SDS011;67851;51.354;7.744;2023-07-22T13:29:56;2.80;;;1.98;;
78555;SDS011;67851;51.354;7.744;2023-07-22T13:32:22;5.95;;;2.78;;
78555;SDS011;67851;51.354;7.744;2023-07-22T13:34:49;4.47;;;2.50;;
78555;SDS011;67851;51.354;7.744;2023-07-22T13:37:22;5.47;;;2.42;;
78555;SDS011;67851;51.354;7.744;2023-07-22T13:39:48;3.70;;;2.60;;
78555;SDS011;67851;51.354;7.744;2023-07-22T13:42:15;3.72;;;2.42;;
78555;SDS011;67851;51.354;7.744;2023-07-22T13:44:40;3.17;;;2.28;;
78555;SDS011;67851;51.354;7.744;2023-07-22T13:47:08;3.15;;;2.30;;
78555;SDS011;67851;51.354;7.744;2023-07-22T13:49:33;5.63;;;2.50;;
78555;SDS011;67851;51.354;7.744;2023-07-22T13:51:59;3.10;;;2.45;;
78555;SDS011;67851;51.354;7.744;2023-07-22T13:54:24;3.45;;;2.33;;
78555;SDS011;67851;51.354;7.744;2023-07-22T13:56:50;3.63;;;2.20;;
78555;SDS011;67851;51.354;7.744;2023-07-22T13:59:15;4.82;;;2.75;;
78555;SDS011;67851;51.354;7.744;2023-07-22T14:01:41;6.00;;;2.28;;
78555;SDS011;67851;51.354;7.744;2023-07-22T14:04:08;3.63;;;2.20;;
78555;SDS011;67851;51.354;7.744;2023-07-22T14:06:34;4.72;;;2.70;;
78555;SDS011;67851;51.354;7.744;2023-07-22T14:09:00;8.65;;;2.63;;
78555;SDS011;67851;51.354;7.744;2023-07-22T14:11:25;2.47;;;2.28;;
78555;SDS011;67851;51.354;7.744;2023-07-22T14:13:51;5.38;;;2.80;;
78555;SDS011;67851;51.354;7.744;2023-07-22T14:16:19;3.00;;;2.10;;
78555;SDS011;67851;51.354;7.744;2023-07-22T14:18:44;5.53;;;2.30;;
78555;SDS011;67851;51.354;7.744;2023-07-22T14:21:10;6.68;;;2.33;;
78555;SDS011;67851;51.354;7.744;2023-07-22T14:23:36;6.22;;;2.65;;
78555;SDS011;67851;51.354;7.744;2023-07-22T14:26:03;3.28;;;2.15;;
78555;SDS011;67851;51.354;7.744;2023-07-22T14:28:29;2.80;;;2.33;;
78555;SDS011;67851;51.354;7.744;2023-07-22T14:30:54;4.00;;;2.28;;
78555;SDS011;67851;51.354;7.744;2023-07-22T14:33:20;7.28;;;2.72;;
78555;SDS011;67851;51.354;7.744;2023-07-22T14:35:46;4.47;;;2.35;;
78555;SDS011;67851;51.354;7.744;2023-07-22T14:38:13;3.25;;;2.38;;
78555;SDS011;67851;51.354;7.744;2023-07-22T14:40:40;6.32;;;2.90;;
78555;SDS011;67851;51.354;7.744;2023-07-22T14:43:06;3.58;;;2.38;;
78555;SDS011;67851;51.354;7.744;2023-07-22T14:45:32;3.83;;;2.53;;
78555;SDS011;67851;51.354;7.744;2023-07-22T14:47:59;3.55;;;2.70;;
78555;SDS011;67851;51.354;7.744;2023-07-22T14:50:26;4.65;;;2.47;;
78555;SDS011;67851;51.354;7.744;2023-07-22T14:52:53;4.80;;;3.03;;
78555;SDS011;67851;51.354;7.744;2023-07-22T14:55:19;6.57;;;2.25;;
78555;SDS011;67851;51.354;7.744;2023-07-22T14:57:44;4.38;;;2.53;;
78555;SDS011;67851;51.354;7.744;2023-07-22T15:00:12;5.40;;;2.88;;